sensor_id;sensor_type;location;lat;lon;timestamp;P1;durP1;ratioP1;P2;durP2;ratioP2
4244;SDS011;2136;48.502;9.194;2022-08-16T00:00:18;3.27;;;2.97;;
4244;SDS011;2136;48.502;9.194;2022-08-16T00:02:47;3.17;;;2.87;;
4244;SDS011;2136;48.502;9.194;2022-08-16T00:05:14;11.60;;;3.23;;
4244;SDS011;2136;48.502;9.194;2022-08-16T00:07:41;3.30;;;3.00;;
4244;SDS011;2136;48.502;9.194;2022-08-16T00:10:09;4.13;;;2.77;;
4244;SDS011;2136;48.502;9.194;2022-08-16T00:12:38;3.70;;;3.03;;
4244;SDS011;2136;48.502;9.194;2022-08-16T00:15:07;2.60;;;2.40;;
4244;SDS011;2136;48.502;9.194;2022-08-16T00:17:38;5.07;;;3.10;;
4244;SDS011;2136;48.502;9.194;2022-08-16T00:20:05;3.30;;;3.10;;
4244;SDS011;2136;48.502;9.194;2022-08-16T00:22:34;3.67;;;3.00;;
4244;SDS011;2136;48.502;9.194;2022-08-16T00:25:01;2.50;;;2.30;;
4244;SDS011;2136;48.502;9.194;2022-08-16T00:27:29;5.00;;;2.67;;
4244;SDS011;2136;48.502;9.194;2022-08-16T00:29:56;3.73;;;2.67;;
4244;SDS011;2136;48.502;9.194;2022-08-16T00:32:23;4.60;;;2.63;;
4244;SDS011;2136;48.502;9.194;2022-08-16T00:34:51;3.70;;;2.93;;
4244;SDS011;2136;48.502;9.194;2022-08-16T00:37:19;7.73;;;2.87;;
4244;SDS011;2136;48.502;9.194;2022-08-16T00:39:47;3.27;;;2.97;;
4244;SDS011;2136;48.502;9.194;2022-08-16T00:42:14;5.20;;;2.90;;
4244;SDS011;2136;48.502;9.194;2022-08-16T00:44:42;3.07;;;2.87;;
4244;SDS011;2136;48.502;9.194;2022-08-16T00:47:17;3.17;;;2.87;;
4244;SDS011;2136;48.502;9.194;2022-08-16T00:49:46;2.90;;;2.70;;
4244;SDS011;2136;48.502;9.194;2022-08-16T00:52:14;7.13;;;3.00;;
4244;SDS011;2136;48.502;9.194;2022-08-16T00:54:41;4.97;;;3.23;;
4244;SDS011;2136;48.502;9.194;2022-08-16T00:57:08;5.27;;;2.90;;
4244;SDS011;2136;48.502;9.194;2022-08-16T00:59:36;4.90;;;3.77;;
4244;SDS011;2136;48.502;9.194;2022-08-16T01:02:06;6.80;;;2.73;;
4244;SDS011;2136;48.502;9.194;2022-08-16T01:04:34;3.97;;;3.27;;
4244;SDS011;2136;48.502;9.194;2022-08-16T01:07:03;2.80;;;2.60;;
4244;SDS011;2136;48.502;9.194;2022-08-16T01:09:33;4.87;;;3.03;;
4244;SDS011;2136;48.502;9.194;2022-08-16T01:12:04;7.73;;;2.80;;
4244;SDS011;2136;48.502;9.194;2022-08-16T01:14:35;2.70;;;2.50;;
4244;SDS011;2136;48.502;9.194;2022-08-16T01:17:05;6.60;;;3.10;;
4244;SDS011;2136;48.502;9.194;2022-08-16T01:19:33;3.63;;;2.93;;
4244;SDS011;2136;48.502;9.194;2022-08-16T01:22:05;3.73;;;3.30;;
4244;SDS011;2136;48.502;9.194;2022-08-16T01:24:41;3.33;;;3.10;;
4244;SDS011;2136;48.502;9.194;2022-08-16T01:27:12;4.53;;;2.60;;
4244;SDS011;2136;48.502;9.194;2022-08-16T01:29:43;3.00;;;2.80;;
4244;SDS011;2136;48.502;9.194;2022-08-16T01:32:13;3.70;;;2.70;;
4244;SDS011;2136;48.502;9.194;2022-08-16T01:34:41;2.60;;;2.40;;
4244;SDS011;2136;48.502;9.194;2022-08-16T01:37:09;11.63;;;3.33;;
4244;SDS011;2136;48.502;9.194;2022-08-16T01:39:37;5.13;;;2.93;;
4244;SDS011;2136;48.502;9.194;2022-08-16T01:42:06;3.87;;;3.47;;
4244;SDS011;2136;48.502;9.194;2022-08-16T01:44:34;10.00;;;3.30;;
4244;SDS011;2136;48.502;9.194;2022-08-16T01:47:03;8.03;;;3.40;;
4244;SDS011;2136;48.502;9.194;2022-08-16T01:49:31;3.43;;;3.13;;
4244;SDS011;2136;48.502;9.194;2022-08-16T01:52:00;3.63;;;3.00;;
4244;SDS011;2136;48.502;9.194;2022-08-16T01:54:31;7.60;;;2.97;;
4244;SDS011;2136;48.502;9.194;2022-08-16T01:56:59;3.93;;;2.83;;
4244;SDS011;2136;48.502;9.194;2022-08-16T01:59:29;3.70;;;2.97;;
4244;SDS011;2136;48.502;9.194;2022-08-16T02:01:56;18.20;;;5.13;;
4244;SDS011;2136;48.502;9.194;2022-08-16T02:04:25;6.97;;;3.60;;
4244;SDS011;2136;48.502;9.194;2022-08-16T02:06:53;5.67;;;3.13;;
4244;SDS011;2136;48.502;9.194;2022-08-16T02:09:20;6.13;;;4.07;;
4244;SDS011;2136;48.502;9.194;2022-08-16T02:11:50;3.60;;;3.20;;
4244;SDS011;2136;48.502;9.194;2022-08-16T02:14:19;6.27;;;3.63;;
4244;SDS011;2136;48.502;9.194;2022-08-16T02:16:49;3.77;;;3.47;;
4244;SDS011;2136;48.502;9.194;2022-08-16T02:19:16;4.10;;;3.70;;
4244;SDS011;2136;48.502;9.194;2022-08-16T02:21:44;3.90;;;3.60;;
4244;SDS011;2136;48.502;9.194;2022-08-16T02:24:14;3.97;;;3.67;;
4244;SDS011;2136;48.502;9.194;2022-08-16T02:26:40;6.00;;;3.70;;
4244;SDS011;2136;48.502;9.194;2022-08-16T02:29:07;4.80;;;3.50;;
4244;SDS011;2136;48.502;9.194;2022-08-16T02:31:34;4.07;;;3.77;;
4244;SDS011;2136;48.502;9.194;2022-08-16T02:34:03;3.57;;;3.27;;
4244;SDS011;2136;48.502;9.194;2022-08-16T02:36:30;7.80;;;3.57;;
4244;SDS011;2136;48.502;9.194;2022-08-16T02:38:57;4.43;;;4.03;;
4244;SDS011;2136;48.502;9.194;2022-08-16T02:41:23;3.90;;;3.50;;
4244;SDS011;2136;48.502;9.194;2022-08-16T02:43:50;3.87;;;3.57;;
4244;SDS011;2136;48.502;9.194;2022-08-16T02:46:17;5.30;;;3.50;;
4244;SDS011;2136;48.502;9.194;2022-08-16T02:48:44;6.00;;;3.70;;
4244;SDS011;2136;48.502;9.194;2022-08-16T02:51:12;6.10;;;3.67;;
4244;SDS011;2136;48.502;9.194;2022-08-16T02:53:41;3.60;;;3.30;;
4244;SDS011;2136;48.502;9.194;2022-08-16T02:56:09;3.93;;;3.60;;
4244;SDS011;2136;48.502;9.194;2022-08-16T02:58:36;7.83;;;3.87;;
4244;SDS011;2136;48.502;9.194;2022-08-16T03:01:03;5.60;;;4.00;;
4244;SDS011;2136;48.502;9.194;2022-08-16T03:03:31;3.87;;;3.57;;
4244;SDS011;2136;48.502;9.194;2022-08-16T03:05:58;4.17;;;3.77;;
4244;SDS011;2136;48.502;9.194;2022-08-16T03:08:27;5.70;;;3.90;;
4244;SDS011;2136;48.502;9.194;2022-08-16T03:10:54;3.97;;;3.37;;
4244;SDS011;2136;48.502;9.194;2022-08-16T03:13:20;5.93;;;3.63;;
4244;SDS011;2136;48.502;9.194;2022-08-16T03:15:47;5.73;;;4.20;;
4244;SDS011;2136;48.502;9.194;2022-08-16T03:18:14;4.57;;;4.17;;
4244;SDS011;2136;48.502;9.194;2022-08-16T03:20:41;5.50;;;4.20;;
4244;SDS011;2136;48.502;9.194;2022-08-16T03:23:09;5.93;;;3.87;;
4244;SDS011;2136;48.502;9.194;2022-08-16T03:25:38;7.43;;;4.47;;
4244;SDS011;2136;48.502;9.194;2022-08-16T03:28:05;5.00;;;4.50;;
4244;SDS011;2136;48.502;9.194;2022-08-16T03:30:34;5.07;;;4.37;;
4244;SDS011;2136;48.502;9.194;2022-08-16T03:33:01;4.53;;;3.80;;
4244;SDS011;2136;48.502;9.194;2022-08-16T03:35:29;5.00;;;3.83;;
4244;SDS011;2136;48.502;9.194;2022-08-16T03:37:59;5.80;;;4.40;;
4244;SDS011;2136;48.502;9.194;2022-08-16T03:40:27;5.40;;;4.57;;
4244;SDS011;2136;48.502;9.194;2022-08-16T03:42:56;4.80;;;3.50;;
4244;SDS011;2136;48.502;9.194;2022-08-16T03:45:23;6.60;;;4.13;;
4244;SDS011;2136;48.502;9.194;2022-08-16T03:47:50;4.13;;;3.53;;
4244;SDS011;2136;48.502;9.194;2022-08-16T03:50:17;4.10;;;2.80;;
4244;SDS011;2136;48.502;9.194;2022-08-16T03:52:44;4.33;;;4.03;;
4244;SDS011;2136;48.502;9.194;2022-08-16T03:55:12;4.10;;;3.70;;
4244;SDS011;2136;48.502;9.194;2022-08-16T03:57:39;6.87;;;3.13;;
4244;SDS011;2136;48.502;9.194;2022-08-16T04:00:09;4.40;;;4.00;;
4244;SDS011;2136;48.502;9.194;2022-08-16T04:02:38;4.97;;;4.20;;
4244;SDS011;2136;48.502;9.194;2022-08-16T04:05:06;4.50;;;4.10;;
4244;SDS011;2136;48.502;9.194;2022-08-16T04:07:34;6.50;;;3.10;;
4244;SDS011;2136;48.502;9.194;2022-08-16T04:10:01;5.27;;;4.30;;
4244;SDS011;2136;48.502;9.194;2022-08-16T04:12:29;4.00;;;3.70;;
4244;SDS011;2136;48.502;9.194;2022-08-16T04:14:55;3.70;;;3.40;;
4244;SDS011;2136;48.502;9.194;2022-08-16T04:17:24;4.00;;;3.70;;
4244;SDS011;2136;48.502;9.194;2022-08-16T04:19:50;5.20;;;3.93;;
4244;SDS011;2136;48.502;9.194;2022-08-16T04:22:17;6.23;;;3.33;;
4244;SDS011;2136;48.502;9.194;2022-08-16T04:24:44;5.93;;;3.70;;
4244;SDS011;2136;48.502;9.194;2022-08-16T04:27:11;4.70;;;3.60;;
4244;SDS011;2136;48.502;9.194;2022-08-16T04:29:38;4.30;;;3.40;;
4244;SDS011;2136;48.502;9.194;2022-08-16T04:32:05;5.93;;;3.43;;
4244;SDS011;2136;48.502;9.194;2022-08-16T04:34:34;5.83;;;3.93;;
4244;SDS011;2136;48.502;9.194;2022-08-16T04:37:04;5.83;;;3.70;;
4244;SDS011;2136;48.502;9.194;2022-08-16T04:39:32;6.43;;;3.53;;
4244;SDS011;2136;48.502;9.194;2022-08-16T04:42:00;7.03;;;4.00;;
4244;SDS011;2136;48.502;9.194;2022-08-16T04:44:28;4.20;;;3.83;;
4244;SDS011;2136;48.502;9.194;2022-08-16T04:46:55;6.40;;;3.70;;
4244;SDS011;2136;48.502;9.194;2022-08-16T04:49:22;5.03;;;3.60;;
4244;SDS011;2136;48.502;9.194;2022-08-16T04:51:51;5.07;;;3.97;;
4244;SDS011;2136;48.502;9.194;2022-08-16T04:54:18;12.20;;;4.60;;
4244;SDS011;2136;48.502;9.194;2022-08-16T04:56:45;6.47;;;3.50;;
4244;SDS011;2136;48.502;9.194;2022-08-16T04:59:11;5.00;;;3.80;;
4244;SDS011;2136;48.502;9.194;2022-08-16T05:01:38;6.10;;;4.00;;
4244;SDS011;2136;48.502;9.194;2022-08-16T05:04:05;4.83;;;4.30;;
4244;SDS011;2136;48.502;9.194;2022-08-16T05:06:32;5.43;;;4.83;;
4244;SDS011;2136;48.502;9.194;2022-08-16T05:09:00;6.10;;;3.77;;
4244;SDS011;2136;48.502;9.194;2022-08-16T05:11:27;5.50;;;3.90;;
4244;SDS011;2136;48.502;9.194;2022-08-16T05:13:55;3.90;;;3.60;;
4244;SDS011;2136;48.502;9.194;2022-08-16T05:16:23;10.10;;;3.60;;
4244;SDS011;2136;48.502;9.194;2022-08-16T05:18:53;3.97;;;3.63;;
4244;SDS011;2136;48.502;9.194;2022-08-16T05:21:22;6.83;;;4.60;;
4244;SDS011;2136;48.502;9.194;2022-08-16T05:23:50;5.77;;;3.73;;
4244;SDS011;2136;48.502;9.194;2022-08-16T05:26:19;6.70;;;4.10;;
4244;SDS011;2136;48.502;9.194;2022-08-16T05:28:46;6.33;;;4.03;;
4244;SDS011;2136;48.502;9.194;2022-08-16T05:31:13;3.60;;;3.30;;
4244;SDS011;2136;48.502;9.194;2022-08-16T05:33:41;4.50;;;4.10;;
4244;SDS011;2136;48.502;9.194;2022-08-16T05:36:09;5.10;;;4.60;;
4244;SDS011;2136;48.502;9.194;2022-08-16T05:38:36;7.50;;;4.40;;
4244;SDS011;2136;48.502;9.194;2022-08-16T05:41:03;5.90;;;4.10;;
4244;SDS011;2136;48.502;9.194;2022-08-16T05:43:31;6.67;;;3.70;;
4244;SDS011;2136;48.502;9.194;2022-08-16T05:45:58;3.90;;;3.60;;
4244;SDS011;2136;48.502;9.194;2022-08-16T05:48:25;5.70;;;4.23;;
4244;SDS011;2136;48.502;9.194;2022-08-16T05:50:52;4.68;;;4.18;;
4244;SDS011;2136;48.502;9.194;2022-08-16T05:53:19;4.60;;;4.20;;
4244;SDS011;2136;48.502;9.194;2022-08-16T05:55:46;6.27;;;4.17;;
4244;SDS011;2136;48.502;9.194;2022-08-16T05:58:13;6.30;;;4.20;;
4244;SDS011;2136;48.502;9.194;2022-08-16T06:00:41;4.63;;;4.20;;
4244;SDS011;2136;48.502;9.194;2022-08-16T06:03:08;5.37;;;3.83;;
4244;SDS011;2136;48.502;9.194;2022-08-16T06:05:34;6.53;;;4.77;;
4244;SDS011;2136;48.502;9.194;2022-08-16T06:08:01;7.03;;;5.50;;
4244;SDS011;2136;48.502;9.194;2022-08-16T06:10:29;6.90;;;5.70;;
4244;SDS011;2136;48.502;9.194;2022-08-16T06:12:56;6.80;;;5.60;;
4244;SDS011;2136;48.502;9.194;2022-08-16T06:15:23;6.50;;;5.07;;
4244;SDS011;2136;48.502;9.194;2022-08-16T06:17:51;8.30;;;5.50;;
4244;SDS011;2136;48.502;9.194;2022-08-16T06:20:19;6.83;;;4.97;;
4244;SDS011;2136;48.502;9.194;2022-08-16T06:22:47;6.43;;;5.40;;
4244;SDS011;2136;48.502;9.194;2022-08-16T06:25:15;7.70;;;4.70;;
4244;SDS011;2136;48.502;9.194;2022-08-16T06:27:42;5.83;;;4.70;;
4244;SDS011;2136;48.502;9.194;2022-08-16T06:30:09;4.33;;;3.93;;
4244;SDS011;2136;48.502;9.194;2022-08-16T06:32:37;5.37;;;4.87;;
4244;SDS011;2136;48.502;9.194;2022-08-16T06:35:07;6.20;;;4.90;;
4244;SDS011;2136;48.502;9.194;2022-08-16T06:37:35;7.03;;;5.00;;
4244;SDS011;2136;48.502;9.194;2022-08-16T06:40:05;5.40;;;4.90;;
4244;SDS011;2136;48.502;9.194;2022-08-16T06:42:32;4.63;;;4.23;;
4244;SDS011;2136;48.502;9.194;2022-08-16T06:44:59;5.23;;;4.70;;
4244;SDS011;2136;48.502;9.194;2022-08-16T06:47:26;9.03;;;5.03;;
4244;SDS011;2136;48.502;9.194;2022-08-16T06:49:53;4.80;;;4.40;;
4244;SDS011;2136;48.502;9.194;2022-08-16T06:52:21;6.77;;;4.83;;
4244;SDS011;2136;48.502;9.194;2022-08-16T06:54:48;4.70;;;4.30;;
4244;SDS011;2136;48.502;9.194;2022-08-16T06:57:15;5.97;;;5.00;;
4244;SDS011;2136;48.502;9.194;2022-08-16T06:59:44;7.03;;;4.80;;
4244;SDS011;2136;48.502;9.194;2022-08-16T07:02:11;4.73;;;4.33;;
4244;SDS011;2136;48.502;9.194;2022-08-16T07:04:38;4.83;;;4.20;;
4244;SDS011;2136;48.502;9.194;2022-08-16T07:07:06;9.50;;;4.40;;
4244;SDS011;2136;48.502;9.194;2022-08-16T07:09:35;4.77;;;4.37;;
4244;SDS011;2136;48.502;9.194;2022-08-16T07:12:02;4.07;;;3.77;;
4244;SDS011;2136;48.502;9.194;2022-08-16T07:14:29;4.57;;;4.17;;
4244;SDS011;2136;48.502;9.194;2022-08-16T07:16:57;9.27;;;4.90;;
4244;SDS011;2136;48.502;9.194;2022-08-16T07:19:24;6.03;;;4.23;;
4244;SDS011;2136;48.502;9.194;2022-08-16T07:21:52;5.23;;;4.10;;
4244;SDS011;2136;48.502;9.194;2022-08-16T07:24:19;6.53;;;4.57;;
4244;SDS011;2136;48.502;9.194;2022-08-16T07:26:47;6.30;;;5.70;;
4244;SDS011;2136;48.502;9.194;2022-08-16T07:29:14;4.50;;;4.10;;
4244;SDS011;2136;48.502;9.194;2022-08-16T07:31:41;4.30;;;3.73;;
4244;SDS011;2136;48.502;9.194;2022-08-16T07:34:08;7.70;;;4.40;;
4244;SDS011;2136;48.502;9.194;2022-08-16T07:36:35;6.53;;;4.33;;
4244;SDS011;2136;48.502;9.194;2022-08-16T07:39:02;6.30;;;4.00;;
4244;SDS011;2136;48.502;9.194;2022-08-16T07:41:29;7.57;;;4.23;;
4244;SDS011;2136;48.502;9.194;2022-08-16T07:43:58;4.90;;;4.00;;
4244;SDS011;2136;48.502;9.194;2022-08-16T07:46:25;4.60;;;4.20;;
4244;SDS011;2136;48.502;9.194;2022-08-16T07:48:52;7.77;;;4.70;;
4244;SDS011;2136;48.502;9.194;2022-08-16T07:51:19;6.00;;;5.40;;
4244;SDS011;2136;48.502;9.194;2022-08-16T07:53:46;8.23;;;4.90;;
4244;SDS011;2136;48.502;9.194;2022-08-16T07:56:15;5.20;;;4.27;;
4244;SDS011;2136;48.502;9.194;2022-08-16T07:58:42;6.47;;;4.50;;
4244;SDS011;2136;48.502;9.194;2022-08-16T08:01:10;6.67;;;4.87;;
4244;SDS011;2136;48.502;9.194;2022-08-16T08:03:38;5.60;;;4.33;;
4244;SDS011;2136;48.502;9.194;2022-08-16T08:06:08;6.10;;;4.17;;
4244;SDS011;2136;48.502;9.194;2022-08-16T08:08:34;8.33;;;4.07;;
4244;SDS011;2136;48.502;9.194;2022-08-16T08:11:02;7.43;;;3.83;;
4244;SDS011;2136;48.502;9.194;2022-08-16T08:13:29;6.03;;;4.40;;
4244;SDS011;2136;48.502;9.194;2022-08-16T08:15:56;6.10;;;4.87;;
4244;SDS011;2136;48.502;9.194;2022-08-16T08:18:24;8.13;;;4.70;;
4244;SDS011;2136;48.502;9.194;2022-08-16T08:20:51;7.00;;;4.40;;
4244;SDS011;2136;48.502;9.194;2022-08-16T08:23:18;9.37;;;4.43;;
4244;SDS011;2136;48.502;9.194;2022-08-16T08:25:46;8.45;;;5.65;;
4244;SDS011;2136;48.502;9.194;2022-08-16T08:28:13;5.30;;;4.30;;
4244;SDS011;2136;48.502;9.194;2022-08-16T08:30:40;5.53;;;4.10;;
4244;SDS011;2136;48.502;9.194;2022-08-16T08:33:07;7.87;;;5.20;;
4244;SDS011;2136;48.502;9.194;2022-08-16T08:35:35;6.03;;;3.40;;
4244;SDS011;2136;48.502;9.194;2022-08-16T08:38:02;9.10;;;3.83;;
4244;SDS011;2136;48.502;9.194;2022-08-16T08:40:31;5.90;;;4.70;;
4244;SDS011;2136;48.502;9.194;2022-08-16T08:42:59;7.23;;;4.70;;
4244;SDS011;2136;48.502;9.194;2022-08-16T08:45:27;4.57;;;4.17;;
4244;SDS011;2136;48.502;9.194;2022-08-16T08:47:54;5.53;;;4.40;;
4244;SDS011;2136;48.502;9.194;2022-08-16T08:50:21;11.87;;;4.33;;
4244;SDS011;2136;48.502;9.194;2022-08-16T08:52:50;6.13;;;4.33;;
4244;SDS011;2136;48.502;9.194;2022-08-16T08:55:18;6.80;;;3.97;;
4244;SDS011;2136;48.502;9.194;2022-08-16T08:57:46;4.00;;;3.70;;
4244;SDS011;2136;48.502;9.194;2022-08-16T09:00:14;4.77;;;4.27;;
4244;SDS011;2136;48.502;9.194;2022-08-16T09:02:43;4.83;;;3.50;;
4244;SDS011;2136;48.502;9.194;2022-08-16T09:05:10;6.10;;;3.63;;
4244;SDS011;2136;48.502;9.194;2022-08-16T09:07:37;6.73;;;4.47;;
4244;SDS011;2136;48.502;9.194;2022-08-16T09:10:06;6.90;;;4.43;;
4244;SDS011;2136;48.502;9.194;2022-08-16T09:12:34;5.50;;;4.40;;
4244;SDS011;2136;48.502;9.194;2022-08-16T09:15:01;3.90;;;3.43;;
4244;SDS011;2136;48.502;9.194;2022-08-16T09:17:28;9.57;;;4.43;;
4244;SDS011;2136;48.502;9.194;2022-08-16T09:19:55;3.80;;;3.60;;
4244;SDS011;2136;48.502;9.194;2022-08-16T09:22:22;5.93;;;3.67;;
4244;SDS011;2136;48.502;9.194;2022-08-16T09:24:49;9.07;;;3.70;;
4244;SDS011;2136;48.502;9.194;2022-08-16T09:27:18;5.83;;;3.30;;
4244;SDS011;2136;48.502;9.194;2022-08-16T09:29:45;6.40;;;3.77;;
4244;SDS011;2136;48.502;9.194;2022-08-16T09:32:12;4.03;;;3.50;;
4244;SDS011;2136;48.502;9.194;2022-08-16T09:34:40;3.77;;;3.50;;
4244;SDS011;2136;48.502;9.194;2022-08-16T09:37:07;10.00;;;4.23;;
4244;SDS011;2136;48.502;9.194;2022-08-16T09:39:34;4.77;;;3.60;;
4244;SDS011;2136;48.502;9.194;2022-08-16T09:42:01;5.50;;;4.20;;
4244;SDS011;2136;48.502;9.194;2022-08-16T09:44:30;4.50;;;4.00;;
4244;SDS011;2136;48.502;9.194;2022-08-16T09:46:56;3.23;;;2.93;;
4244;SDS011;2136;48.502;9.194;2022-08-16T09:49:23;4.80;;;3.47;;
4244;SDS011;2136;48.502;9.194;2022-08-16T09:51:51;3.97;;;3.60;;
4244;SDS011;2136;48.502;9.194;2022-08-16T09:54:19;3.40;;;3.10;;
4244;SDS011;2136;48.502;9.194;2022-08-16T09:56:46;4.00;;;3.30;;
4244;SDS011;2136;48.502;9.194;2022-08-16T09:59:14;5.20;;;3.10;;
4244;SDS011;2136;48.502;9.194;2022-08-16T10:01:42;6.13;;;2.90;;
4244;SDS011;2136;48.502;9.194;2022-08-16T10:04:12;11.90;;;3.70;;
4244;SDS011;2136;48.502;9.194;2022-08-16T10:06:42;3.87;;;2.93;;
4244;SDS011;2136;48.502;9.194;2022-08-16T10:09:10;3.83;;;3.20;;
4244;SDS011;2136;48.502;9.194;2022-08-16T10:11:39;6.67;;;3.20;;
4244;SDS011;2136;48.502;9.194;2022-08-16T10:14:24;7.00;;;2.67;;
4244;SDS011;2136;48.502;9.194;2022-08-16T10:16:55;3.80;;;3.00;;
4244;SDS011;2136;48.502;9.194;2022-08-16T10:19:24;3.43;;;3.23;;
4244;SDS011;2136;48.502;9.194;2022-08-16T10:21:51;3.57;;;3.30;;
4244;SDS011;2136;48.502;9.194;2022-08-16T10:24:18;9.50;;;3.53;;
4244;SDS011;2136;48.502;9.194;2022-08-16T10:26:45;3.70;;;3.27;;
4244;SDS011;2136;48.502;9.194;2022-08-16T10:29:12;3.07;;;2.77;;
4244;SDS011;2136;48.502;9.194;2022-08-16T10:31:39;4.27;;;3.07;;
4244;SDS011;2136;48.502;9.194;2022-08-16T10:34:08;3.93;;;3.30;;
4244;SDS011;2136;48.502;9.194;2022-08-16T10:36:35;2.93;;;2.70;;
4244;SDS011;2136;48.502;9.194;2022-08-16T10:39:04;3.70;;;3.23;;
4244;SDS011;2136;48.502;9.194;2022-08-16T10:41:31;5.03;;;3.00;;
4244;SDS011;2136;48.502;9.194;2022-08-16T10:43:58;2.50;;;2.30;;
4244;SDS011;2136;48.502;9.194;2022-08-16T10:46:25;4.27;;;3.00;;
4244;SDS011;2136;48.502;9.194;2022-08-16T10:48:52;5.47;;;2.90;;
4244;SDS011;2136;48.502;9.194;2022-08-16T10:51:20;5.90;;;3.53;;
4244;SDS011;2136;48.502;9.194;2022-08-16T10:53:47;3.20;;;2.90;;
4244;SDS011;2136;48.502;9.194;2022-08-16T10:56:15;3.20;;;3.00;;
4244;SDS011;2136;48.502;9.194;2022-08-16T10:58:42;3.63;;;2.83;;
4244;SDS011;2136;48.502;9.194;2022-08-16T11:01:09;2.87;;;2.67;;
4244;SDS011;2136;48.502;9.194;2022-08-16T11:03:36;2.83;;;2.60;;
4244;SDS011;2136;48.502;9.194;2022-08-16T11:06:04;4.57;;;3.20;;
4244;SDS011;2136;48.502;9.194;2022-08-16T11:08:34;3.30;;;3.00;;
4244;SDS011;2136;48.502;9.194;2022-08-16T11:11:02;2.93;;;2.53;;
4244;SDS011;2136;48.502;9.194;2022-08-16T11:13:30;4.70;;;3.53;;
4244;SDS011;2136;48.502;9.194;2022-08-16T11:15:57;3.27;;;3.07;;
4244;SDS011;2136;48.502;9.194;2022-08-16T11:18:25;3.60;;;2.90;;
4244;SDS011;2136;48.502;9.194;2022-08-16T11:20:53;3.13;;;2.60;;
4244;SDS011;2136;48.502;9.194;2022-08-16T11:23:22;4.50;;;2.93;;
4244;SDS011;2136;48.502;9.194;2022-08-16T11:25:51;3.80;;;2.60;;
4244;SDS011;2136;48.502;9.194;2022-08-16T11:28:19;3.33;;;2.77;;
4244;SDS011;2136;48.502;9.194;2022-08-16T11:30:46;4.90;;;2.57;;
4244;SDS011;2136;48.502;9.194;2022-08-16T11:33:13;6.33;;;3.10;;
4244;SDS011;2136;48.502;9.194;2022-08-16T11:35:40;2.53;;;2.43;;
4244;SDS011;2136;48.502;9.194;2022-08-16T11:38:09;3.70;;;2.00;;
4244;SDS011;2136;48.502;9.194;2022-08-16T11:40:39;3.67;;;2.90;;
4244;SDS011;2136;48.502;9.194;2022-08-16T11:43:12;3.05;;;2.85;;
4244;SDS011;2136;48.502;9.194;2022-08-16T11:45:40;3.10;;;2.77;;
4244;SDS011;2136;48.502;9.194;2022-08-16T11:48:07;4.50;;;2.70;;
4244;SDS011;2136;48.502;9.194;2022-08-16T11:50:34;10.00;;;2.83;;
4244;SDS011;2136;48.502;9.194;2022-08-16T11:53:02;2.90;;;2.70;;
4244;SDS011;2136;48.502;9.194;2022-08-16T11:55:30;3.50;;;3.20;;
4244;SDS011;2136;48.502;9.194;2022-08-16T11:57:58;2.87;;;2.67;;
4244;SDS011;2136;48.502;9.194;2022-08-16T12:00:27;3.03;;;2.83;;
4244;SDS011;2136;48.502;9.194;2022-08-16T12:02:55;5.00;;;2.53;;
4244;SDS011;2136;48.502;9.194;2022-08-16T12:05:23;4.97;;;2.77;;
4244;SDS011;2136;48.502;9.194;2022-08-16T12:07:51;4.33;;;2.80;;
4244;SDS011;2136;48.502;9.194;2022-08-16T12:10:19;10.17;;;2.87;;
4244;SDS011;2136;48.502;9.194;2022-08-16T12:12:47;2.43;;;2.30;;
4244;SDS011;2136;48.502;9.194;2022-08-16T12:15:16;3.23;;;3.03;;
4244;SDS011;2136;48.502;9.194;2022-08-16T12:17:44;5.10;;;3.37;;
4244;SDS011;2136;48.502;9.194;2022-08-16T12:20:12;5.07;;;3.17;;
4244;SDS011;2136;48.502;9.194;2022-08-16T12:22:43;3.00;;;2.80;;
4244;SDS011;2136;48.502;9.194;2022-08-16T12:25:11;3.00;;;2.80;;
4244;SDS011;2136;48.502;9.194;2022-08-16T12:27:39;4.23;;;3.20;;
4244;SDS011;2136;48.502;9.194;2022-08-16T12:30:09;3.90;;;3.60;;
4244;SDS011;2136;48.502;9.194;2022-08-16T12:32:36;4.23;;;3.00;;
4244;SDS011;2136;48.502;9.194;2022-08-16T12:35:06;9.53;;;4.03;;
4244;SDS011;2136;48.502;9.194;2022-08-16T12:37:34;5.17;;;3.50;;
4244;SDS011;2136;48.502;9.194;2022-08-16T12:40:02;3.50;;;3.20;;
4244;SDS011;2136;48.502;9.194;2022-08-16T12:42:31;3.20;;;2.73;;
4244;SDS011;2136;48.502;9.194;2022-08-16T12:44:58;3.47;;;3.20;;
4244;SDS011;2136;48.502;9.194;2022-08-16T12:47:25;3.60;;;2.80;;
4244;SDS011;2136;48.502;9.194;2022-08-16T12:50:11;3.10;;;2.87;;
4244;SDS011;2136;48.502;9.194;2022-08-16T12:52:38;10.10;;;3.50;;
4244;SDS011;2136;48.502;9.194;2022-08-16T12:55:05;4.10;;;3.27;;
4244;SDS011;2136;48.502;9.194;2022-08-16T12:57:35;2.93;;;2.73;;
4244;SDS011;2136;48.502;9.194;2022-08-16T13:00:04;2.67;;;2.47;;
4244;SDS011;2136;48.502;9.194;2022-08-16T13:02:33;3.10;;;2.97;;
4244;SDS011;2136;48.502;9.194;2022-08-16T13:04:59;4.83;;;3.70;;
4244;SDS011;2136;48.502;9.194;2022-08-16T13:07:27;8.27;;;3.50;;
4244;SDS011;2136;48.502;9.194;2022-08-16T13:09:57;3.23;;;2.70;;
4244;SDS011;2136;48.502;9.194;2022-08-16T13:12:32;4.23;;;3.33;;
4244;SDS011;2136;48.502;9.194;2022-08-16T13:15:02;3.93;;;3.53;;
4244;SDS011;2136;48.502;9.194;2022-08-16T13:17:30;3.40;;;3.10;;
4244;SDS011;2136;48.502;9.194;2022-08-16T13:19:57;4.63;;;3.00;;
4244;SDS011;2136;48.502;9.194;2022-08-16T13:22:25;3.23;;;3.03;;
4244;SDS011;2136;48.502;9.194;2022-08-16T13:24:53;3.40;;;2.73;;
4244;SDS011;2136;48.502;9.194;2022-08-16T13:27:20;2.93;;;2.73;;
4244;SDS011;2136;48.502;9.194;2022-08-16T13:29:49;4.63;;;3.30;;
4244;SDS011;2136;48.502;9.194;2022-08-16T13:32:15;2.90;;;2.70;;
4244;SDS011;2136;48.502;9.194;2022-08-16T13:34:43;5.17;;;2.80;;
4244;SDS011;2136;48.502;9.194;2022-08-16T13:37:09;3.30;;;3.10;;
4244;SDS011;2136;48.502;9.194;2022-08-16T13:39:36;3.00;;;2.80;;
4244;SDS011;2136;48.502;9.194;2022-08-16T13:42:09;5.83;;;2.97;;
4244;SDS011;2136;48.502;9.194;2022-08-16T13:44:36;2.53;;;2.33;;
4244;SDS011;2136;48.502;9.194;2022-08-16T13:47:04;3.20;;;2.90;;
4244;SDS011;2136;48.502;9.194;2022-08-16T13:49:31;3.63;;;2.80;;
4244;SDS011;2136;48.502;9.194;2022-08-16T13:51:58;3.90;;;3.53;;
4244;SDS011;2136;48.502;9.194;2022-08-16T13:54:25;3.17;;;2.43;;
4244;SDS011;2136;48.502;9.194;2022-08-16T13:56:52;4.70;;;3.03;;
4244;SDS011;2136;48.502;9.194;2022-08-16T13:59:21;4.13;;;2.53;;
4244;SDS011;2136;48.502;9.194;2022-08-16T14:01:48;3.00;;;2.70;;
4244;SDS011;2136;48.502;9.194;2022-08-16T14:04:17;5.23;;;2.83;;
4244;SDS011;2136;48.502;9.194;2022-08-16T14:06:43;3.80;;;2.83;;
4244;SDS011;2136;48.502;9.194;2022-08-16T14:09:10;3.77;;;3.20;;
4244;SDS011;2136;48.502;9.194;2022-08-16T14:11:37;3.20;;;3.00;;
4244;SDS011;2136;48.502;9.194;2022-08-16T14:14:04;5.13;;;3.37;;
4244;SDS011;2136;48.502;9.194;2022-08-16T14:16:32;3.17;;;2.53;;
4244;SDS011;2136;48.502;9.194;2022-08-16T14:18:59;3.13;;;2.80;;
4244;SDS011;2136;48.502;9.194;2022-08-16T14:21:26;3.13;;;2.83;;
4244;SDS011;2136;48.502;9.194;2022-08-16T14:23:53;5.97;;;2.90;;
4244;SDS011;2136;48.502;9.194;2022-08-16T14:26:20;3.20;;;2.87;;
4244;SDS011;2136;48.502;9.194;2022-08-16T14:28:47;7.83;;;2.90;;
4244;SDS011;2136;48.502;9.194;2022-08-16T14:31:14;3.90;;;3.40;;
4244;SDS011;2136;48.502;9.194;2022-08-16T14:33:43;3.60;;;2.80;;
4244;SDS011;2136;48.502;9.194;2022-08-16T14:36:10;3.37;;;3.00;;
4244;SDS011;2136;48.502;9.194;2022-08-16T14:38:39;8.03;;;3.00;;
4244;SDS011;2136;48.502;9.194;2022-08-16T14:41:06;3.20;;;3.00;;
4244;SDS011;2136;48.502;9.194;2022-08-16T14:43:33;3.37;;;3.07;;
4244;SDS011;2136;48.502;9.194;2022-08-16T14:45:59;3.10;;;2.63;;
4244;SDS011;2136;48.502;9.194;2022-08-16T14:48:28;9.93;;;3.23;;
4244;SDS011;2136;48.502;9.194;2022-08-16T14:50:56;7.83;;;2.97;;
4244;SDS011;2136;48.502;9.194;2022-08-16T14:53:24;4.77;;;3.10;;
4244;SDS011;2136;48.502;9.194;2022-08-16T14:55:51;3.03;;;2.73;;
4244;SDS011;2136;48.502;9.194;2022-08-16T14:58:18;2.97;;;2.80;;
4244;SDS011;2136;48.502;9.194;2022-08-16T15:00:45;3.30;;;3.00;;
4244;SDS011;2136;48.502;9.194;2022-08-16T15:03:12;7.83;;;3.17;;
4244;SDS011;2136;48.502;9.194;2022-08-16T15:05:39;4.47;;;2.37;;
4244;SDS011;2136;48.502;9.194;2022-08-16T15:08:08;3.93;;;2.90;;
4244;SDS011;2136;48.502;9.194;2022-08-16T15:10:35;18.03;;;3.43;;
4244;SDS011;2136;48.502;9.194;2022-08-16T15:13:03;8.80;;;2.60;;
4244;SDS011;2136;48.502;9.194;2022-08-16T15:15:30;8.50;;;3.10;;
4244;SDS011;2136;48.502;9.194;2022-08-16T15:17:58;3.40;;;2.83;;